Time;durP1;ratioP1;P1;durP2;ratioP2;P2;SDS_P1;SDS_P2;PMS_P1;PMS_P2;Temp;Humidity;BMP_temperature;BMP_pressure;BME280_temperature;BME280_humidity;BME280_pressure;Samples;Min_cycle;Max_cycle;Signal;HPM_P1;HPM_P2
2023/08/21 00:01:02;;;;;;;1.85;0.60;;;17.00;99.90;;;;;;5050189;28;20033;-51
2023/08/21 00:03:27;;;;;;;0.80;0.40;;;16.90;99.90;;;;;;5047784;28;20041;-50
2023/08/21 00:05:53;;;;;;;0.75;0.30;;;16.90;99.90;;;;;;5037145;28;20545;-50
2023/08/21 00:08:18;;;;;;;2.97;0.45;;;16.80;99.90;;;;;;5043294;28;20033;-53
2023/08/21 00:10:44;;;;;;;1.83;1.10;;;16.70;99.90;;;;;;5049972;28;20074;-50
2023/08/21 00:13:10;;;;;;;5.97;0.82;;;16.60;99.90;;;;;;5031855;28;20059;-50
2023/08/21 00:15:38;;;;;;;4.15;0.93;;;16.70;99.90;;;;;;5049200;28;20037;-51
2023/08/21 00:18:03;;;;;;;3.05;1.13;;;16.70;99.90;;;;;;5044259;28;20036;-53
2023/08/21 00:20:29;;;;;;;2.08;0.63;;;16.80;99.90;;;;;;5049230;28;20041;-53
2023/08/21 00:22:54;;;;;;;3.60;0.60;;;16.70;99.90;;;;;;5047981;28;20225;-53
2023/08/21 00:25:21;;;;;;;4.25;0.95;;;16.70;99.90;;;;;;5049227;28;20033;-54
2023/08/21 00:27:47;;;;;;;3.17;1.00;;;16.70;99.90;;;;;;5049335;28;20043;-54
2023/08/21 00:30:14;;;;;;;4.82;0.90;;;16.70;99.90;;;;;;5048793;28;20040;-50
2023/08/21 00:32:40;;;;;;;4.93;1.05;;;16.70;99.90;;;;;;5048767;28;20087;-51
2023/08/21 00:35:06;;;;;;;4.13;1.10;;;16.70;99.90;;;;;;5049227;28;20028;-52
2023/08/21 00:37:32;;;;;;;2.90;1.20;;;16.70;99.90;;;;;;5049252;28;20040;-50
2023/08/21 00:39:57;;;;;;;6.32;1.70;;;16.80;99.90;;;;;;5048646;28;20102;-50
2023/08/21 00:42:23;;;;;;;4.80;1.98;;;16.70;99.90;;;;;;5010656;28;20071;-51
2023/08/21 00:44:49;;;;;;;3.85;0.68;;;16.70;99.90;;;;;;5042591;28;20041;-51
2023/08/21 00:47:15;;;;;;;6.60;0.93;;;16.70;99.90;;;;;;5048654;28;20036;-53
2023/08/21 00:49:40;;;;;;;3.08;0.85;;;16.60;99.90;;;;;;5043432;28;20095;-50
2023/08/21 00:52:12;;;;;;;1.15;0.60;;;16.50;99.90;;;;;;5047989;28;20068;-50
2023/08/21 00:54:38;;;;;;;1.70;0.52;;;16.40;99.90;;;;;;5051328;28;20064;-51
2023/08/21 00:57:04;;;;;;;5.97;1.45;;;16.30;99.90;;;;;;5051478;28;20116;-50
2023/08/21 00:59:30;;;;;;;3.80;0.90;;;16.20;99.90;;;;;;5028457;28;20052;-50
2023/08/21 01:01:56;;;;;;;2.10;1.15;;;16.30;99.90;;;;;;5055940;28;20053;-52
2023/08/21 01:04:22;;;;;;;4.32;1.52;;;16.30;99.90;;;;;;5047593;28;20040;-53
2023/08/21 01:06:49;;;;;;;;;;;16.20;99.90;;;;;;5053025;28;20029;-52
2023/08/21 01:09:38;;;;;;;1.13;0.80;;;16.30;99.90;;;;;;5046543;28;19920;-51
2023/08/21 01:12:16;;;;;;;6.32;1.40;;;16.30;99.90;;;;;;5039076;28;20073;-53
2023/08/21 01:14:57;;;;;;;5.22;1.70;;;16.30;99.90;;;;;;5053720;28;20458;-50
2023/08/21 01:17:24;;;;;;;3.90;1.92;;;16.30;99.90;;;;;;5033179;28;20037;-51
2023/08/21 01:19:50;;;;;;;5.85;1.75;;;16.30;99.90;;;;;;5036126;28;20032;-50
2023/08/21 01:22:16;;;;;;;5.93;1.90;;;16.30;99.90;;;;;;5053021;28;20167;-50
2023/08/21 01:24:42;;;;;;;3.15;1.65;;;16.30;99.90;;;;;;5033002;28;20141;-51
2023/08/21 01:27:12;;;;;;;1.75;0.70;;;16.30;99.90;;;;;;5052467;28;20120;-50
2023/08/21 01:29:37;;;;;;;5.18;2.03;;;16.30;99.90;;;;;;5047284;28;20478;-50
2023/08/21 01:32:17;;;;;;;4.93;2.28;;;16.30;99.90;;;;;;5053039;28;20025;-51
2023/08/21 01:34:43;;;;;;;6.30;1.88;;;16.30;99.90;;;;;;5050921;28;20114;-50
2023/08/21 01:37:10;;;;;;;4.68;0.47;;;16.30;99.90;;;;;;5052132;28;20052;-50
2023/08/21 01:39:36;;;;;;;1.48;0.70;;;16.30;99.90;;;;;;5051133;28;20037;-52
2023/08/21 01:42:01;;;;;;;7.00;1.35;;;16.20;99.90;;;;;;5034797;28;20036;-51
2023/08/21 01:44:27;;;;;;;4.35;1.15;;;16.20;99.90;;;;;;5052131;28;20041;-51
2023/08/21 01:46:53;;;;;;;4.20;1.25;;;16.20;99.90;;;;;;5052462;28;20029;-50
2023/08/21 01:49:19;;;;;;;3.47;1.20;;;16.10;99.90;;;;;;5051793;28;20025;-50
2023/08/21 01:51:45;;;;;;;3.80;1.00;;;16.10;99.90;;;;;;5044622;28;20113;-50
2023/08/21 01:54:11;;;;;;;4.43;0.95;;;16.20;99.90;;;;;;5052300;28;20040;-50
2023/08/21 01:56:37;;;;;;;1.85;0.60;;;16.10;99.90;;;;;;5050700;28;20049;-51
2023/08/21 01:59:04;;;;;;;2.35;0.65;;;16.10;99.90;;;;;;5050088;28;20045;-54
2023/08/21 02:01:30;;;;;;;2.25;0.82;;;16.10;99.90;;;;;;5050591;28;20037;-50
2023/08/21 02:03:55;;;;;;;2.75;0.90;;;16.00;99.90;;;;;;5041485;28;20044;-51
2023/08/21 02:06:21;;;;;;;4.65;0.77;;;16.00;99.90;;;;;;5048125;28;20418;-52
2023/08/21 02:08:47;;;;;;;0.98;0.70;;;16.00;99.90;;;;;;5041807;28;20152;-52
2023/08/21 02:11:12;;;;;;;2.80;0.60;;;16.00;99.90;;;;;;5039392;28;20451;-50
2023/08/21 02:13:38;;;;;;;3.70;0.65;;;16.00;99.90;;;;;;5051716;28;20049;-51
2023/08/21 02:16:03;;;;;;;3.10;0.63;;;16.00;99.90;;;;;;5050361;28;20139;-50
2023/08/21 02:18:29;;;;;;;2.80;1.15;;;16.10;99.90;;;;;;5051218;28;20037;-50
2023/08/21 02:20:55;;;;;;;1.67;0.57;;;16.10;99.90;;;;;;5049133;28;20041;-53
2023/08/21 02:23:20;;;;;;;3.65;0.60;;;16.10;99.90;;;;;;5051537;28;20110;-50
2023/08/21 02:25:46;;;;;;;1.25;0.40;;;16.10;99.90;;;;;;5050246;28;20083;-51
2023/08/21 02:28:12;;;;;;;1.75;0.80;;;16.10;99.90;;;;;;5033593;28;20067;-50
2023/08/21 02:30:41;;;;;;;0.90;0.65;;;16.00;99.90;;;;;;5050848;28;20033;-50
2023/08/21 02:33:06;;;;;;;2.08;0.80;;;15.90;99.90;;;;;;5052010;28;20103;-52
2023/08/21 02:35:32;;;;;;;1.50;0.30;;;15.80;99.90;;;;;;5050527;28;20447;-52
2023/08/21 02:37:57;;;;;;;1.33;0.30;;;15.80;99.90;;;;;;5051260;28;20099;-51
2023/08/21 02:40:23;;;;;;;0.65;0.47;;;15.80;99.90;;;;;;5049447;28;20088;-53
2023/08/21 02:42:49;;;;;;;2.17;0.40;;;15.80;99.90;;;;;;5051454;28;20029;-50
2023/08/21 02:45:14;;;;;;;1.05;0.40;;;15.80;99.90;;;;;;5051135;28;20071;-51
2023/08/21 02:47:41;;;;;;;0.47;0.20;;;15.80;99.90;;;;;;5051640;28;20041;-56
2023/08/21 02:50:09;;;;;;;0.65;0.30;;;15.60;99.90;;;;;;5050453;28;20037;-54
2023/08/21 02:52:35;;;;;;;0.65;0.50;;;15.50;99.90;;;;;;5042167;28;20059;-50
2023/08/21 02:55:01;;;;;;;0.50;0.30;;;15.50;99.90;;;;;;5050969;28;20048;-51
2023/08/21 02:57:28;;;;;;;0.90;0.30;;;15.60;99.90;;;;;;5047199;28;20048;-50
2023/08/21 02:59:54;;;;;;;2.67;0.70;;;15.60;99.90;;;;;;5012687;28;20041;-53
2023/08/21 03:02:19;;;;;;;;;;;15.70;99.90;;;;;;5046605;28;20036;-53
2023/08/21 03:04:45;;;;;;;1.17;0.40;;;15.70;99.90;;;;;;5049799;28;19974;-52
2023/08/21 03:07:11;;;;;;;0.40;0.30;;;15.70;99.90;;;;;;5049275;28;20166;-52
2023/08/21 03:09:37;;;;;;;1.13;0.40;;;15.70;99.90;;;;;;5048780;28;20032;-54
2023/08/21 03:12:03;;;;;;;1.23;0.50;;;15.70;99.90;;;;;;5046416;28;20106;-51
2023/08/21 03:14:29;;;;;;;;;;;15.70;99.90;;;;;;5049902;28;20046;-52
2023/08/21 03:16:54;;;;;;;0.95;0.20;;;15.70;99.90;;;;;;5037339;28;19927;-50
2023/08/21 03:19:20;;;;;;;0.43;0.30;;;15.60;99.90;;;;;;5037480;28;20410;-52
2023/08/21 03:21:46;;;;;;;0.90;0.30;;;15.60;99.90;;;;;;5033614;28;20041;-51
2023/08/21 03:24:11;;;;;;;1.05;0.40;;;15.60;99.90;;;;;;5050889;28;20044;-52
2023/08/21 03:26:37;;;;;;;1.98;0.20;;;15.60;99.90;;;;;;5048564;28;20548;-50
2023/08/21 03:29:03;;;;;;;3.13;0.20;;;15.60;99.90;;;;;;5052507;28;20063;-50
2023/08/21 03:31:29;;;;;;;2.10;0.28;;;15.50;99.90;;;;;;5041282;28;20029;-50
2023/08/21 03:33:55;;;;;;;0.40;0.30;;;15.40;99.90;;;;;;5050578;28;20039;-50
2023/08/21 03:36:20;;;;;;;1.38;0.30;;;15.40;99.90;;;;;;5048414;28;20037;-50
2023/08/21 03:38:46;;;;;;;0.50;0.10;;;15.30;99.90;;;;;;5049362;28;20029;-55
2023/08/21 03:41:11;;;;;;;0.30;0.20;;;15.30;99.90;;;;;;5049804;28;20106;-51
2023/08/21 03:43:37;;;;;;;0.57;0.30;;;15.30;99.90;;;;;;5049043;28;20532;-49
2023/08/21 03:46:03;;;;;;;0.50;0.30;;;15.30;99.90;;;;;;5049948;28;20029;-51
2023/08/21 03:48:29;;;;;;;1.45;0.30;;;15.30;99.90;;;;;;5046772;28;20044;-53
2023/08/21 03:50:54;;;;;;;0.30;0.20;;;15.30;99.90;;;;;;5050547;28;20033;-50
2023/08/21 03:53:20;;;;;;;0.30;0.20;;;15.30;99.90;;;;;;5049423;28;20033;-50
2023/08/21 03:55:46;;;;;;;0.45;0.10;;;15.20;99.90;;;;;;5049590;28;20256;-52
2023/08/21 03:58:13;;;;;;;0.10;0.10;;;15.10;99.90;;;;;;5048475;28;20037;-50
2023/08/21 04:00:39;;;;;;;0.60;0.40;;;15.10;99.90;;;;;;5049853;28;20062;-51
2023/08/21 04:03:04;;;;;;;3.15;0.30;;;15.10;99.90;;;;;;5046130;28;20047;-53
2023/08/21 04:05:30;;;;;;;0.60;0.35;;;15.10;99.90;;;;;;5043436;28;20044;-52
2023/08/21 04:07:55;;;;;;;0.25;0.20;;;15.10;99.90;;;;;;5034046;28;20067;-53
2023/08/21 04:10:21;;;;;;;2.17;0.30;;;15.00;99.90;;;;;;5049543;28;20033;-51
2023/08/21 04:12:46;;;;;;;2.00;0.20;;;14.90;99.90;;;;;;5049011;28;20112;-53
2023/08/21 04:15:12;;;;;;;2.65;0.40;;;14.90;99.90;;;;;;5044122;28;20071;-51
2023/08/21 04:17:38;;;;;;;0.43;0.20;;;14.90;99.90;;;;;;5046899;28;20033;-51
2023/08/21 04:20:03;;;;;;;1.02;0.43;;;14.90;99.90;;;;;;5044889;28;20483;-50
2023/08/21 04:22:29;;;;;;;1.95;0.60;;;14.90;99.90;;;;;;5041061;28;20080;-50
2023/08/21 04:24:55;;;;;;;1.90;0.50;;;15.00;99.90;;;;;;5048919;28;20044;-54
2023/08/21 04:27:20;;;;;;;1.55;0.30;;;15.00;99.90;;;;;;5041078;28;20544;-50
2023/08/21 04:29:46;;;;;;;0.65;0.20;;;15.00;99.90;;;;;;5047939;28;20044;-51
2023/08/21 04:32:12;;;;;;;2.55;0.20;;;14.90;99.90;;;;;;5047054;28;20498;-50
2023/08/21 04:34:37;;;;;;;0.95;0.10;;;14.90;99.90;;;;;;5047677;28;20537;-50
2023/08/21 04:37:04;;;;;;;0.95;0.20;;;14.80;99.90;;;;;;5046209;28;20037;-54
2023/08/21 04:39:30;;;;;;;1.55;0.20;;;14.70;99.90;;;;;;5045296;28;20047;-50
2023/08/21 04:41:55;;;;;;;4.75;0.40;;;14.60;99.90;;;;;;5049366;28;20490;-52
2023/08/21 04:44:21;;;;;;;0.68;0.30;;;14.50;99.90;;;;;;5044749;28;20033;-51
2023/08/21 04:46:48;;;;;;;2.88;0.57;;;14.50;99.90;;;;;;5041462;28;20032;-52
2023/08/21 04:49:14;;;;;;;1.50;0.22;;;14.40;99.90;;;;;;5047800;28;20063;-52
2023/08/21 04:51:39;;;;;;;3.40;0.22;;;14.40;99.90;;;;;;5049417;28;20608;-52
2023/08/21 04:54:05;;;;;;;1.25;0.40;;;14.40;99.90;;;;;;5042289;28;20116;-52
2023/08/21 04:56:30;;;;;;;3.58;0.40;;;14.40;99.90;;;;;;5045700;28;20045;-50
2023/08/21 04:58:56;;;;;;;0.95;0.60;;;14.40;99.90;;;;;;5046416;28;20530;-50
2023/08/21 05:01:21;;;;;;;2.33;0.40;;;14.50;99.90;;;;;;5044171;28;20029;-51
2023/08/21 05:03:47;;;;;;;2.05;0.93;;;14.50;99.90;;;;;;5029702;28;20044;-53
2023/08/21 05:06:13;;;;;;;2.40;0.47;;;14.50;99.90;;;;;;5047839;28;20124;-53
2023/08/21 05:08:38;;;;;;;2.28;0.73;;;14.70;99.90;;;;;;5047185;28;20095;-50
2023/08/21 05:11:04;;;;;;;1.00;0.43;;;14.70;99.90;;;;;;5048308;28;20082;-50
2023/08/21 05:13:30;;;;;;;1.90;0.20;;;14.80;99.90;;;;;;5047698;28;20037;-50
2023/08/21 05:15:57;;;;;;;2.10;0.55;;;14.80;99.90;;;;;;5047148;28;20125;-51
2023/08/21 05:18:24;;;;;;;2.22;0.40;;;14.80;99.90;;;;;;5046762;28;20524;-51
2023/08/21 05:20:50;;;;;;;1.88;0.68;;;14.80;99.90;;;;;;5048133;28;20124;-54
2023/08/21 05:23:16;;;;;;;;;;;14.90;99.90;;;;;;5048668;28;20045;-53
2023/08/21 05:25:43;;;;;;;4.75;1.13;;;14.90;99.90;;;;;;5047896;28;19935;-52
2023/08/21 05:28:09;;;;;;;4.60;0.90;;;15.00;99.90;;;;;;5047539;28;20033;-50
2023/08/21 05:30:38;;;;;;;2.25;0.90;;;15.00;99.90;;;;;;5047775;28;20214;-50
2023/08/21 05:33:04;;;;;;;3.78;1.40;;;15.10;99.90;;;;;;5047937;28;20067;-51
2023/08/21 05:35:34;;;;;;;4.38;1.98;;;15.20;99.90;;;;;;5047504;28;20037;-50
2023/08/21 05:37:59;;;;;;;2.83;1.30;;;15.30;99.90;;;;;;5047509;28;20037;-50
2023/08/21 05:40:25;;;;;;;2.13;1.70;;;15.30;99.90;;;;;;5050667;28;20047;-50
2023/08/21 05:42:50;;;;;;;1.85;1.40;;;15.40;99.90;;;;;;5050935;28;20111;-53
2023/08/21 05:45:16;;;;;;;2.10;1.13;;;15.50;99.90;;;;;;5031381;28;20052;-52
2023/08/21 05:47:42;;;;;;;3.58;1.20;;;15.60;99.90;;;;;;5044533;28;20040;-50
2023/08/21 05:50:07;;;;;;;2.58;1.10;;;15.80;99.90;;;;;;5044965;28;20043;-52
2023/08/21 05:52:33;;;;;;;1.63;1.50;;;15.80;99.90;;;;;;5046910;28;20536;-53
2023/08/21 05:54:58;;;;;;;2.78;1.67;;;15.90;99.90;;;;;;5051096;28;20033;-50
2023/08/21 05:57:24;;;;;;;2.13;1.50;;;16.00;99.90;;;;;;5051267;28;20040;-52
2023/08/21 05:59:49;;;;;;;4.07;1.48;;;16.10;99.90;;;;;;5048756;28;20071;-53
2023/08/21 06:02:15;;;;;;;4.57;2.00;;;16.20;99.90;;;;;;5050527;28;20049;-51
2023/08/21 06:04:42;;;;;;;5.70;2.70;;;16.30;99.90;;;;;;5049383;28;20059;-51
2023/08/21 06:07:08;;;;;;;5.28;2.95;;;16.50;99.90;;;;;;5048759;28;20029;-52
2023/08/21 06:09:34;;;;;;;8.07;3.92;;;16.60;99.90;;;;;;5046882;28;20100;-53
2023/08/21 06:12:03;;;;;;;8.10;4.63;;;16.80;99.90;;;;;;5051783;28;20503;-50
2023/08/21 06:14:29;;;;;;;16.48;3.65;;;16.90;99.90;;;;;;5046422;28;20040;-51
2023/08/21 06:16:58;;;;;;;10.18;4.15;;;17.00;99.90;;;;;;5049318;28;20120;-52
2023/08/21 06:19:24;;;;;;;6.25;3.72;;;17.10;99.90;;;;;;5045939;28;20160;-51
2023/08/21 06:21:50;;;;;;;7.57;3.33;;;17.20;99.90;;;;;;5051609;28;20044;-50
2023/08/21 06:24:16;;;;;;;7.32;3.80;;;17.40;99.90;;;;;;5039208;28;20049;-50
2023/08/21 06:26:42;;;;;;;6.82;3.60;;;17.40;99.90;;;;;;5032157;28;20478;-53
2023/08/21 06:29:07;;;;;;;4.97;3.63;;;17.50;99.90;;;;;;5030566;28;20124;-54
2023/08/21 06:31:33;;;;;;;7.63;4.38;;;17.60;99.90;;;;;;5032044;28;20037;-50
2023/08/21 06:33:58;;;;;;;7.72;4.85;;;17.70;99.90;;;;;;5035700;28;20043;-50
2023/08/21 06:36:24;;;;;;;6.95;5.70;;;17.80;99.90;;;;;;5046676;28;20448;-50
2023/08/21 06:38:50;;;;;;;7.40;5.93;;;17.90;99.90;;;;;;5045647;28;20040;-53
2023/08/21 06:41:15;;;;;;;8.82;6.03;;;18.00;99.90;;;;;;5044470;28;20045;-51
2023/08/21 06:43:41;;;;;;;8.80;5.00;;;18.00;99.90;;;;;;5038819;28;20065;-54
2023/08/21 06:46:07;;;;;;;6.90;4.40;;;18.10;99.90;;;;;;5027423;28;20036;-51
2023/08/21 06:48:34;;;;;;;9.15;5.10;;;18.20;99.90;;;;;;5037453;28;20505;-52
2023/08/21 06:50:59;;;;;;;6.20;4.10;;;18.30;99.90;;;;;;5035106;28;20506;-51
2023/08/21 06:53:25;;;;;;;9.63;4.53;;;18.40;99.90;;;;;;5039838;28;20041;-54
2023/08/21 06:55:50;;;;;;;9.32;4.28;;;18.50;99.90;;;;;;5041353;28;20047;-53
2023/08/21 06:58:16;;;;;;;8.30;5.88;;;18.60;99.90;;;;;;5036616;28;20688;-50
2023/08/21 07:00:41;;;;;;;12.38;5.38;;;18.70;99.90;;;;;;5041030;28;20067;-51
2023/08/21 07:03:07;;;;;;;13.30;5.07;;;18.70;99.90;;;;;;5042456;28;20494;-54
2023/08/21 07:05:33;;;;;;;8.57;5.75;;;18.80;99.90;;;;;;5050679;28;20037;-51
2023/08/21 07:07:59;;;;;;;10.52;5.15;;;18.90;99.90;;;;;;5050340;28;20064;-52
2023/08/21 07:10:25;;;;;;;7.60;5.13;;;19.00;99.90;;;;;;5050834;28;20065;-50
2023/08/21 07:12:51;;;;;;;9.57;5.78;;;19.10;99.90;;;;;;5050519;28;20494;-52
2023/08/21 07:15:16;;;;;;;;;;;19.10;99.90;;;;;;5039790;28;20112;-51
2023/08/21 07:17:42;;;;;;;10.05;4.45;;;19.20;99.90;;;;;;5038969;28;19917;-55
2023/08/21 07:20:08;;;;;;;8.45;4.82;;;19.30;99.90;;;;;;5042017;28;20029;-52
2023/08/21 07:22:33;;;;;;;7.93;4.90;;;19.40;99.90;;;;;;5043188;28;20059;-51
2023/08/21 07:25:03;;;;;;;12.27;4.93;;;19.50;99.90;;;;;;5032186;28;20548;-51
2023/08/21 07:27:29;;;;;;;9.77;3.78;;;19.60;99.90;;;;;;5041926;28;20055;-51
2023/08/21 07:29:55;;;;;;;;;;;19.70;99.90;;;;;;5046824;28;20064;-51
2023/08/21 07:32:20;;;;;;;7.55;2.85;;;19.80;99.90;;;;;;5044626;28;20330;-54
2023/08/21 07:34:46;;;;;;;4.88;2.42;;;19.90;99.90;;;;;;5042522;28;20109;-52
2023/08/21 07:37:11;;;;;;;;;;;20.00;99.90;;;;;;5044085;28;20178;-50
2023/08/21 07:39:37;;;;;;;8.52;2.17;;;20.10;99.90;;;;;;5037173;28;19917;-56
2023/08/21 07:42:02;;;;;;;;;;;20.20;99.90;;;;;;5038087;28;20040;-51
2023/08/21 07:44:28;;;;;;;9.88;2.42;;;20.30;99.90;;;;;;5043395;28;20405;-53
2023/08/21 07:46:53;;;;;;;;;;;20.40;99.90;;;;;;5045028;28;20029;-51
2023/08/21 07:49:19;;;;;;;6.15;2.20;;;20.50;99.90;;;;;;5039251;28;19923;-50
2023/08/21 07:51:45;;;;;;;;;;;20.70;99.90;;;;;;5049327;28;20049;-50
2023/08/21 07:54:10;;;;;;;8.38;2.88;;;20.70;99.90;;;;;;5042566;28;20281;-53
2023/08/21 07:56:36;;;;;;;;;;;20.80;99.90;;;;;;5038334;28;20037;-50
2023/08/21 07:59:03;;;;;;;6.75;2.60;;;20.80;99.90;;;;;;5049133;28;19916;-54
2023/08/21 08:01:28;;;;;;;8.18;2.63;;;20.90;99.90;;;;;;5041336;28;20029;-54
2023/08/21 08:03:54;;;;;;;;;;;21.00;99.90;;;;;;5043030;28;20040;-50
2023/08/21 08:06:19;;;;;;;6.50;1.65;;;21.00;99.90;;;;;;5046797;28;19987;-49
2023/08/21 08:08:45;;;;;;;;;;;21.10;99.90;;;;;;5022678;28;20045;-51
2023/08/21 08:11:11;;;;;;;7.35;1.73;;;21.20;99.90;;;;;;5039104;28;20309;-51
2023/08/21 08:13:36;;;;;;;;;;;21.30;99.90;;;;;;5049736;28;20033;-52
2023/08/21 08:16:02;;;;;;;6.57;1.80;;;21.40;99.90;;;;;;5045950;28;19917;-50
2023/08/21 08:18:28;;;;;;;;;;;21.60;99.90;;;;;;5049417;28;20451;-50
2023/08/21 08:20:53;;;;;;;4.40;1.10;;;21.60;99.90;;;;;;5040529;28;19917;-54
2023/08/21 08:23:20;;;;;;;;;;;21.70;99.90;;;;;;5048627;28;20045;-51
2023/08/21 08:25:45;;;;;;;7.47;1.40;;;21.80;99.90;;;;;;5045074;28;20036;-50
2023/08/21 08:28:11;;;;;;;;;;;21.90;99.90;;;;;;5044090;28;20120;-53
2023/08/21 08:30:36;;;;;;;5.82;1.08;;;22.00;99.90;;;;;;5041954;28;19916;-50
2023/08/21 08:33:02;;;;;;;;;;;22.10;99.90;;;;;;5041354;28;20431;-54
2023/08/21 08:35:27;;;;;;;4.38;1.30;;;22.20;99.90;;;;;;5043269;28;19917;-50
2023/08/21 08:37:53;;;;;;;;;;;22.20;99.90;;;;;;5039364;28;20044;-52
2023/08/21 08:40:19;;;;;;;4.72;0.70;;;22.30;99.90;;;;;;5040113;28;20313;-50
2023/08/21 08:42:44;;;;;;;;;;;22.30;99.90;;;;;;5049748;28;20044;-53
2023/08/21 08:45:13;;;;;;;4.55;0.70;;;22.40;99.90;;;;;;5045075;28;20431;-50
2023/08/21 08:47:40;;;;;;;4.35;0.50;;;22.40;99.90;;;;;;5042660;28;20269;-50
2023/08/21 08:50:08;;;;;;;3.55;1.00;;;22.50;99.90;;;;;;5028847;28;20044;-50
2023/08/21 08:52:39;;;;;;;2.38;0.55;;;22.50;99.90;;;;;;5040398;28;20409;-55
2023/08/21 08:55:08;;;;;;;3.15;0.38;;;22.60;99.90;;;;;;5045993;28;20037;-51
2023/08/21 08:57:34;;;;;;;3.08;0.50;;;22.70;99.90;;;;;;5046639;28;20091;-51
2023/08/21 09:00:00;;;;;;;;;;;22.90;99.90;;;;;;5048014;28;20032;-53
2023/08/21 09:02:28;;;;;;;6.55;0.73;;;23.00;99.90;;;;;;5030195;28;19920;-55
2023/08/21 09:04:54;;;;;;;4.10;0.50;;;23.00;99.90;;;;;;5046685;28;20075;-52
2023/08/21 09:07:20;;;;;;;;;;;23.10;99.90;;;;;;5047961;28;20500;-55
2023/08/21 09:09:49;;;;;;;4.40;0.30;;;23.20;99.90;;;;;;5046231;28;20467;-52
2023/08/21 09:12:15;;;;;;;3.05;0.22;;;23.30;99.90;;;;;;5047888;28;20039;-51
2023/08/21 09:14:42;;;;;;;3.38;0.25;;;23.40;99.90;;;;;;5048693;28;20064;-50
2023/08/21 09:17:08;;;;;;;1.27;0.22;;;23.30;99.90;;;;;;5029980;28;20068;-51
2023/08/21 09:19:34;;;;;;;2.30;0.13;;;23.40;99.90;;;;;;5050857;28;20585;-53
2023/08/21 09:22:09;;;;;;;;;;;23.50;99.90;;;;;;5050586;28;20115;-50
2023/08/21 09:24:36;;;;;;;5.57;0.40;;;23.50;99.90;;;;;;5050828;28;20314;-51
2023/08/21 09:27:01;;;;;;;4.38;0.30;;;23.60;99.90;;;;;;5050535;28;20044;-50
2023/08/21 09:29:37;;;;;;;6.80;0.55;;;23.60;99.90;;;;;;5050608;28;20523;-51
2023/08/21 09:32:03;;;;;;;5.73;0.73;;;23.80;99.90;;;;;;5050414;28;20040;-50
2023/08/21 09:34:34;;;;;;;5.65;0.75;;;24.00;99.90;;;;;;5048951;28;20550;-50
2023/08/21 09:37:00;;;;;;;4.95;0.40;;;24.00;99.90;;;;;;5050423;28;20049;-51
2023/08/21 09:39:32;;;;;;;2.35;0.47;;;24.00;99.90;;;;;;5050383;28;20413;-52
2023/08/21 09:41:59;;;;;;;3.55;0.30;;;23.90;99.90;;;;;;5048965;28;20098;-52
2023/08/21 09:44:25;;;;;;;4.28;0.30;;;23.90;99.90;;;;;;5049472;28;20044;-52
2023/08/21 09:46:50;;;;;;;5.78;0.43;;;23.90;99.90;;;;;;5046092;28;20041;-53
2023/08/21 09:49:17;;;;;;;1.75;0.30;;;23.90;99.90;;;;;;5050433;28;20539;-54
2023/08/21 09:51:44;;;;;;;3.55;0.40;;;24.00;99.90;;;;;;5050944;28;20097;-52
2023/08/21 09:54:11;;;;;;;2.50;0.40;;;24.00;99.90;;;;;;5049040;28;20045;-50
2023/08/21 09:56:37;;;;;;;5.35;0.50;;;24.00;99.90;;;;;;5050427;28;20041;-52
2023/08/21 09:59:03;;;;;;;4.90;0.65;;;24.10;99.90;;;;;;5048184;28;20550;-51
2023/08/21 10:01:34;;;;;;;3.85;0.38;;;24.20;99.90;;;;;;5048100;28;20072;-51
2023/08/21 10:04:02;;;;;;;4.75;0.65;;;24.30;99.90;;;;;;5049256;28;20055;-51
2023/08/21 10:06:29;;;;;;;6.53;0.98;;;24.40;99.90;;;;;;5049460;28;20065;-50
2023/08/21 10:08:57;;;;;;;4.78;0.43;;;24.40;99.90;;;;;;5050204;28;20401;-52
2023/08/21 10:11:23;;;;;;;5.68;0.65;;;24.50;99.90;;;;;;5048308;28;20048;-53
2023/08/21 10:13:50;;;;;;;2.90;0.40;;;24.60;99.90;;;;;;5050943;28;20078;-53
2023/08/21 10:16:16;;;;;;;3.72;0.40;;;24.70;99.90;;;;;;5047589;28;20464;-55
2023/08/21 10:18:45;;;;;;;3.22;0.70;;;24.80;99.90;;;;;;5049655;28;20044;-52
2023/08/21 10:21:12;;;;;;;4.07;0.60;;;24.80;99.90;;;;;;5045292;28;20126;-54
2023/08/21 10:23:39;;;;;;;2.83;0.30;;;24.80;99.90;;;;;;5044642;28;20068;-52
2023/08/21 10:26:09;;;;;;;1.33;0.40;;;24.80;99.90;;;;;;5043905;28;20106;-51
2023/08/21 10:28:50;;;;;;;1.27;0.40;;;24.80;99.40;;;;;;5045831;28;20037;-51
2023/08/21 10:31:35;;;;;;;2.22;0.30;;;24.80;99.80;;;;;;5046341;28;20221;-51
2023/08/21 10:34:05;;;;;;;3.20;0.40;;;24.80;99.70;;;;;;5046419;28;20129;-54
2023/08/21 10:36:59;;;;;;;5.68;0.50;;;24.80;99.40;;;;;;5049164;28;20469;-53
2023/08/21 10:39:27;;;;;;;2.72;0.28;;;24.90;99.50;;;;;;4967672;28;20058;-52
2023/08/21 10:42:07;;;;;;;1.38;0.20;;;24.90;99.60;;;;;;4967613;28;20352;-50
2023/08/21 10:44:41;;;;;;;3.80;0.30;;;25.00;99.80;;;;;;4968620;28;20047;-50
2023/08/21 10:47:21;;;;;;;2.83;0.30;;;25.10;99.30;;;;;;4968723;28;20039;-53
2023/08/21 10:49:51;;;;;;;2.25;0.40;;;25.20;99.00;;;;;;4965697;28;20061;-50
2023/08/21 10:52:23;;;;;;;1.83;0.30;;;25.20;98.80;;;;;;4969361;28;20074;-51
2023/08/21 10:54:55;;;;;;;2.30;0.38;;;25.30;99.20;;;;;;4966389;28;20146;-51
2023/08/21 10:57:23;;;;;;;4.68;0.38;;;25.20;98.30;;;;;;4968601;28;20461;-50
2023/08/21 10:59:56;;;;;;;1.63;0.30;;;25.20;98.40;;;;;;4965536;28;20089;-50
2023/08/21 11:02:29;;;;;;;3.90;0.32;;;25.30;98.50;;;;;;4968274;28;20607;-51
2023/08/21 11:04:54;;;;;;;1.58;0.28;;;25.30;98.10;;;;;;4966401;28;20413;-52
2023/08/21 11:07:21;;;;;;;1.08;0.20;;;25.30;98.00;;;;;;4965388;28;20065;-53
2023/08/21 11:09:47;;;;;;;1.17;0.20;;;25.40;97.90;;;;;;4963539;28;20104;-53
2023/08/21 11:12:22;;;;;;;3.65;0.47;;;25.50;97.90;;;;;;4968187;28;20050;-54
2023/08/21 11:14:49;;;;;;;2.72;0.30;;;25.50;96.90;;;;;;4965205;28;20077;-50
2023/08/21 11:17:14;;;;;;;1.83;0.30;;;25.50;97.20;;;;;;5043861;28;20059;-50
2023/08/21 11:19:41;;;;;;;2.33;0.40;;;25.60;97.00;;;;;;5048104;28;20397;-50
2023/08/21 11:22:07;;;;;;;3.38;0.35;;;25.80;97.60;;;;;;5045782;28;20116;-52
2023/08/21 11:24:40;;;;;;;2.47;0.50;;;25.80;96.70;;;;;;5043539;28;20506;-52
2023/08/21 11:27:12;;;;;;;5.22;0.30;;;25.80;96.60;;;;;;5046613;28;20433;-52
2023/08/21 11:29:39;;;;;;;1.23;0.30;;;25.90;96.40;;;;;;5048174;28;20033;-53
2023/08/21 11:32:23;;;;;;;1.30;0.30;;;26.00;96.60;;;;;;5031505;28;20033;-51
2023/08/21 11:34:54;;;;;;;2.28;0.47;;;26.20;96.30;;;;;;5049031;28;20036;-51
2023/08/21 11:37:21;;;;;;;3.42;0.30;;;26.30;97.10;;;;;;5042982;28;20037;-50
2023/08/21 11:39:57;;;;;;;2.13;0.60;;;26.30;96.90;;;;;;5044089;28;20591;-52
2023/08/21 11:42:30;;;;;;;;;;;26.20;96.00;;;;;;5045584;28;20132;-52
2023/08/21 11:44:56;;;;;;;3.17;0.30;;;26.20;97.30;;;;;;5043420;28;19929;-53
2023/08/21 11:47:23;;;;;;;3.10;0.32;;;26.20;96.00;;;;;;5043164;28;20061;-52
2023/08/21 11:49:50;;;;;;;2.25;0.20;;;26.20;96.00;;;;;;5046223;28;20044;-53
2023/08/21 11:52:21;;;;;;;3.80;0.50;;;26.20;96.60;;;;;;5048633;28;20120;-53
2023/08/21 11:54:51;;;;;;;2.53;0.30;;;26.30;96.60;;;;;;5047515;28;20040;-52
2023/08/21 11:57:17;;;;;;;1.50;0.30;;;26.30;95.50;;;;;;5047814;28;20037;-51
2023/08/21 11:59:43;;;;;;;3.35;0.30;;;26.30;95.70;;;;;;5047305;28;20595;-53
2023/08/21 12:02:19;;;;;;;2.05;0.30;;;26.30;95.20;;;;;;5045384;28;20497;-55
2023/08/21 12:04:45;;;;;;;2.83;0.30;;;26.20;94.70;;;;;;5044802;28;20076;-53
2023/08/21 12:07:11;;;;;;;2.55;0.35;;;26.20;95.50;;;;;;5048344;28;20075;-50
2023/08/21 12:09:37;;;;;;;1.90;0.45;;;26.30;95.40;;;;;;5043635;28;20119;-51
2023/08/21 12:12:03;;;;;;;0.82;0.15;;;26.40;95.80;;;;;;5047014;28;20167;-52
2023/08/21 12:14:29;;;;;;;1.05;0.30;;;26.50;95.80;;;;;;5046259;28;20044;-51
2023/08/21 12:16:55;;;;;;;6.38;1.30;;;26.60;95.40;;;;;;5047537;28;20040;-51
2023/08/21 12:19:24;;;;;;;1.75;0.30;;;26.60;95.10;;;;;;5046515;28;20116;-51
2023/08/21 12:21:51;;;;;;;4.60;0.35;;;26.60;95.10;;;;;;5048432;28;20029;-50
2023/08/21 12:24:16;;;;;;;3.70;0.30;;;26.60;94.50;;;;;;5045707;28;20129;-53
2023/08/21 12:26:42;;;;;;;2.28;0.20;;;26.60;94.40;;;;;;5048245;28;20132;-51
2023/08/21 12:29:07;;;;;;;2.75;0.90;;;26.70;94.80;;;;;;5045579;28;20033;-50
2023/08/21 12:31:33;;;;;;;2.00;0.40;;;26.70;94.20;;;;;;5046061;28;20040;-54
2023/08/21 12:33:59;;;;;;;4.25;0.70;;;26.60;94.70;;;;;;5047886;28;20060;-50
2023/08/21 12:36:25;;;;;;;1.90;0.20;;;26.60;94.60;;;;;;5047337;28;20075;-50
2023/08/21 12:38:50;;;;;;;2.95;0.45;;;26.70;94.80;;;;;;5046025;28;20482;-50
2023/08/21 12:41:16;;;;;;;2.67;0.35;;;26.60;94.10;;;;;;5048549;28;20490;-50
2023/08/21 12:43:41;;;;;;;2.25;0.30;;;26.70;94.60;;;;;;5043700;28;20080;-51
2023/08/21 12:46:07;;;;;;;4.47;0.20;;;26.70;94.30;;;;;;5047381;28;20047;-52
2023/08/21 12:48:33;;;;;;;0.93;0.20;;;26.90;94.20;;;;;;5044704;28;20040;-50
2023/08/21 12:50:58;;;;;;;1.15;0.20;;;26.70;93.70;;;;;;5048804;28;20486;-50